Quick Links (Output Below):   Max & Min Temps   /   Climate Reports   /   Zone Forecasts
River Forecasts   /   Forestry Forecasts   /   Aviation Forecasts   /   Radars   /   Features

Terminal Aerodrome Forecast (Hot Springs)

Pick a Site:
Arkadelphia | El Dorado | Fayetteville | Fort Smith | Harrison | Highfill | Hot Springs | Jonesboro
Little Rock | Monticello | Mountain Home | Pine Bluff | Texarkana
 Forecast 

KHOT 012329Z 0200/0224 12006KT P6SM VCSH OVC040
     FM021000 08003KT 2SM BR SCT250
     FM021500 06005KT P6SM SCT030
     FM021800 05005KT P6SM BKN050=


 Latest METARs (Observations) 
How to Decode METARs
02Z KHOT 020153Z AUTO 00000KT 10SM OVC065 22/19 A3005 RMK AO2 SLP170
         T02170194
         
01Z KHOT 020053Z AUTO 10003KT 10SM FEW018 OVC055 22/19 A3004 RMK AO2
         SLP169 T02170194
         
00Z KHOT 012353Z AUTO 13003KT 10SM OVC055 22/19 A3004 RMK AO2 SLP168
         T02220194 10250 20222 58002
         
***** Today's Observations (Above) *****


23Z KHOT 012253Z AUTO 12003KT 10SM OVC047 22/19 A3005 RMK AO2 SLP170
         T02220189
         
22Z KHOT 012153Z AUTO 18006KT 9SM FEW015 BKN049 OVC055 22/19 A3005 RMK
         AO2 SLP171 T02220194
         
21Z KHOT 012053Z AUTO 10004KT 10SM BKN045 OVC055 24/19 A3005 RMK AO2
         SLP169 T02440189 56010
         
20Z KHOT 011953Z AUTO 12004KT 10SM OVC044 24/19 A3006 RMK AO2 SLP173
         T02390194
         
19Z KHOT 011853Z AUTO 07005KT 10SM FEW022 BKN033 OVC041 24/19 A3007
         RMK AO2 SLP176 T02440189
         
18Z KHOT 011753Z AUTO 08006KT 10SM OVC036 23/18 A3008 RMK AO2 SLP181
         T02330183 10233 20200 53001
         
17Z KHOT 011653Z AUTO 06006KT 10SM OVC034 23/18 A3008 RMK AO2 SLP180
         T02280183
         
***** Yesterday's Observations (Above) *****


Back to Main Page
http://www.srh.noaa.gov/lzk/qfcst.php

USA.gov is the U.S. government's official web portal to all federal, state and local government web resources and services.